Time;durP1;ratioP1;P1;durP2;ratioP2;P2;SDS_P1;SDS_P2;PMS_P1;PMS_P2;Temp;Humidity;BMP_temperature;BMP_pressure;BME280_temperature;BME280_humidity;BME280_pressure;Samples;Min_cycle;Max_cycle;Signal;HPM_P1;HPM_P2
2022/04/02 00:01:40;;;;;;;5.83;4.60;;;;;;;;;;4993171;28;20596;-84
2022/04/02 00:04:07;;;;;;;5.10;4.70;;;;;;;;;;4994081;28;20243;-83
2022/04/02 00:06:34;;;;;;;4.80;4.40;;;;;;;;;;4993627;28;20603;-84
2022/04/02 00:09:02;;;;;;;5.17;4.77;;;;;;;;;;4993969;28;20293;-83
2022/04/02 00:11:29;;;;;;;5.03;4.57;;;;;;;;;;4993734;28;20250;-84
2022/04/02 00:13:58;;;;;;;5.20;4.70;;;;;;;;;;4994137;28;20210;-83
2022/04/02 00:16:25;;;;;;;5.10;4.70;;;;;;;;;;4993553;28;20710;-83
2022/04/02 00:18:52;;;;;;;4.63;4.23;;;;;;;;;;4993099;28;20211;-84
2022/04/02 00:21:20;;;;;;;5.77;5.27;;;;;;;;;;4993108;28;20746;-84
2022/04/02 00:23:47;;;;;;;5.40;5.00;;;;;;;;;;4993417;28;20233;-84
2022/04/02 00:26:15;;;;;;;5.70;5.00;;;;;;;;;;5007006;28;20223;-84
2022/04/02 00:28:43;;;;;;;5.23;4.73;;;;;;;;;;4996035;28;20572;-83
2022/04/02 00:31:13;;;;;;;5.43;4.83;;;;;;;;;;4997364;28;20636;-83
2022/04/02 00:33:40;;;;;;;4.70;4.37;;;;;;;;;;4994848;28;20244;-83
2022/04/02 00:36:08;;;;;;;4.47;4.17;;;;;;;;;;4993980;28;20238;-84
2022/04/02 00:38:35;;;;;;;4.77;4.20;;;;;;;;;;4994304;28;20325;-84
2022/04/02 00:41:02;;;;;;;4.47;4.07;;;;;;;;;;4993595;28;20249;-82
2022/04/02 00:43:30;;;;;;;4.23;3.93;;;;;;;;;;4998369;28;20219;-84
2022/04/02 00:45:57;;;;;;;4.97;4.47;;;;;;;;;;4997735;28;20244;-84
2022/04/02 00:48:27;;;;;;;3.90;3.63;;;;;;;;;;4997126;28;20211;-84
2022/04/02 00:50:56;;;;;;;5.30;4.80;;;;;;;;;;4997182;28;20711;-84
2022/04/02 00:53:24;;;;;;;4.30;4.00;;;;;;;;;;4997508;28;20227;-84
2022/04/02 00:55:51;;;;;;;4.33;4.03;;;;;;;;;;4997826;28;20238;-84
2022/04/02 00:58:19;;;;;;;6.30;4.03;;;;;;;;;;4997640;28;20203;-83
2022/04/02 01:00:46;;;;;;;3.80;3.47;;;;;;;;;;4997068;28;20244;-83
2022/04/02 01:03:16;;;;;;;4.50;4.20;;;;;;;;;;4997133;28;20215;-84
2022/04/02 01:05:44;;;;;;;3.93;3.63;;;;;;;;;;4997357;28;20242;-83
2022/04/02 01:08:11;;;;;;;4.67;3.77;;;;;;;;;;5001172;28;20218;-82
2022/04/02 01:10:40;;;;;;;4.33;4.03;;;;;;;;;;5014311;28;20240;-83
2022/04/02 01:13:07;;;;;;;4.13;3.83;;;;;;;;;;4996406;28;20204;-83
2022/04/02 01:15:34;;;;;;;3.83;3.50;;;;;;;;;;4996163;28;20236;-84
2022/04/02 01:18:01;;;;;;;4.07;3.77;;;;;;;;;;4996309;28;20211;-84
2022/04/02 01:20:29;;;;;;;4.00;3.60;;;;;;;;;;4995518;28;20232;-83
2022/04/02 01:22:58;;;;;;;5.20;3.70;;;;;;;;;;4996325;28;20241;-83
2022/04/02 01:25:31;;;;;;;6.10;3.90;;;;;;;;;;4995812;28;20238;-81
2022/04/02 01:27:59;;;;;;;3.97;3.67;;;;;;;;;;4996416;28;20291;-83
2022/04/02 01:30:26;;;;;;;4.73;3.83;;;;;;;;;;4995994;28;20259;-83
2022/04/02 01:32:53;;;;;;;3.50;3.20;;;;;;;;;;4996529;28;20207;-83
2022/04/02 01:35:21;;;;;;;4.00;3.63;;;;;;;;;;4996143;28;20202;-83
2022/04/02 01:37:49;;;;;;;4.00;3.70;;;;;;;;;;4996493;28;20299;-83
2022/04/02 01:40:17;;;;;;;4.47;3.70;;;;;;;;;;4997280;28;20228;-83
2022/04/02 01:42:44;;;;;;;4.10;3.70;;;;;;;;;;4996781;28;20188;-82
2022/04/02 01:45:12;;;;;;;4.33;3.73;;;;;;;;;;4998051;28;20263;-83
2022/04/02 01:47:39;;;;;;;4.03;3.63;;;;;;;;;;4996776;28;20580;-83
2022/04/02 01:50:07;;;;;;;4.20;3.80;;;;;;;;;;4996382;28;20228;-82
2022/04/02 01:52:34;;;;;;;4.50;3.83;;;;;;;;;;4998187;28;20211;-83
2022/04/02 01:55:01;;;;;;;4.40;4.00;;;;;;;;;;4996842;28;20210;-82
2022/04/02 01:57:30;;;;;;;4.40;4.00;;;;;;;;;;4996377;28;20230;-82
2022/04/02 01:59:57;;;;;;;4.60;4.00;;;;;;;;;;4996596;28;20238;-83
2022/04/02 02:02:26;;;;;;;6.97;3.87;;;;;;;;;;4996378;28;20238;-83
2022/04/02 02:04:53;;;;;;;5.50;4.07;;;;;;;;;;4996784;28;20231;-83
2022/04/02 02:07:20;;;;;;;4.00;3.70;;;;;;;;;;4996373;28;20251;-82
2022/04/02 02:09:47;;;;;;;4.17;3.77;;;;;;;;;;4996874;28;20238;-82
2022/04/02 02:12:15;;;;;;;3.60;3.30;;;;;;;;;;4997911;28;20236;-83
2022/04/02 02:14:44;;;;;;;4.20;3.63;;;;;;;;;;4997714;28;20302;-82
2022/04/02 02:17:11;;;;;;;3.90;3.60;;;;;;;;;;4997367;28;20242;-81
2022/04/02 02:19:38;;;;;;;4.10;3.80;;;;;;;;;;4997695;28;20231;-81
2022/04/02 02:22:05;;;;;;;3.90;3.60;;;;;;;;;;4997129;28;20758;-82
2022/04/02 02:24:33;;;;;;;4.30;4.00;;;;;;;;;;4998390;28;20215;-81
2022/04/02 02:27:01;;;;;;;4.00;3.70;;;;;;;;;;4997606;28;20236;-82
2022/04/02 02:29:28;;;;;;;4.20;3.80;;;;;;;;;;4999685;28;20242;-82
2022/04/02 02:31:57;;;;;;;5.83;4.20;;;;;;;;;;4998423;28;20277;-81
2022/04/02 02:37:09;;;;;;;4.03;3.30;;;;;;;;;;4997345;28;20659;-82
2022/04/02 02:39:36;;;;;;;4.87;4.00;;;;;;;;;;4997879;28;20595;-82
2022/04/02 02:42:03;;;;;;;4.13;3.80;;;;;;;;;;4997285;28;20254;-83
2022/04/02 02:44:30;;;;;;;3.63;3.30;;;;;;;;;;4997110;28;20212;-83
2022/04/02 02:46:59;;;;;;;3.90;3.60;;;;;;;;;;4996125;28;20238;-83
2022/04/02 02:49:26;;;;;;;3.77;3.40;;;;;;;;;;4996500;28;20421;-83
2022/04/02 02:51:53;;;;;;;4.97;4.03;;;;;;;;;;4996589;28;20242;-82
2022/04/02 02:54:20;;;;;;;3.97;3.57;;;;;;;;;;4998330;28;20235;-82
2022/04/02 02:56:47;;;;;;;5.77;3.80;;;;;;;;;;4997675;28;20248;-83
2022/04/02 02:59:15;;;;;;;3.87;3.47;;;;;;;;;;4997099;28;20242;-83
2022/04/02 03:01:42;;;;;;;3.97;3.73;;;;;;;;;;4997789;28;20235;-83
2022/04/02 03:04:10;;;;;;;3.60;3.30;;;;;;;;;;4997001;28;20253;-83
2022/04/02 03:06:37;;;;;;;4.03;3.63;;;;;;;;;;4996969;28;20235;-83
2022/04/02 03:09:04;;;;;;;3.90;3.60;;;;;;;;;;4996411;28;20204;-83
2022/04/02 03:11:32;;;;;;;3.90;3.60;;;;;;;;;;4995627;28;20243;-83
2022/04/02 03:13:59;;;;;;;5.27;3.67;;;;;;;;;;4995688;28;20307;-83
2022/04/02 03:16:26;;;;;;;3.83;3.53;;;;;;;;;;4994959;28;20619;-83
2022/04/02 03:18:53;;;;;;;3.77;3.33;;;;;;;;;;4994415;28;20711;-84
2022/04/02 03:21:21;;;;;;;3.87;3.47;;;;;;;;;;4994119;28;20247;-84
2022/04/02 03:23:48;;;;;;;7.50;3.83;;;;;;;;;;4994638;28;20215;-85
2022/04/02 03:26:16;;;;;;;3.43;3.13;;;;;;;;;;4993714;28;20243;-84
2022/04/02 03:28:46;;;;;;;3.90;3.60;;;;;;;;;;4994347;28;20212;-84
2022/04/02 03:31:13;;;;;;;3.70;3.40;;;;;;;;;;4993682;28;20250;-84
2022/04/02 03:33:40;;;;;;;3.60;3.30;;;;;;;;;;4993859;28;20229;-84
2022/04/02 03:36:10;;;;;;;4.30;3.47;;;;;;;;;;4993479;28;20322;-84
2022/04/02 03:38:38;;;;;;;5.53;3.40;;;;;;;;;;4993995;28;20207;-84
2022/04/02 03:41:05;;;;;;;3.70;3.40;;;;;;;;;;4993341;28;20243;-84
2022/04/02 03:43:32;;;;;;;3.80;3.50;;;;;;;;;;4993933;28;20210;-84
2022/04/02 03:48:41;;;;;;;5.53;3.50;;;;;;;;;;4993630;28;20200;-84
2022/04/02 03:51:08;;;;;;;5.10;3.70;;;;;;;;;;4993489;28;20258;-84
2022/04/02 03:53:35;;;;;;;3.73;3.40;;;;;;;;;;4994308;28;20220;-84
2022/04/02 03:56:04;;;;;;;4.00;3.60;;;;;;;;;;5009828;28;20238;-84
2022/04/02 03:58:31;;;;;;;4.30;3.87;;;;;;;;;;5017389;28;20199;-85
2022/04/02 04:00:58;;;;;;;4.33;3.93;;;;;;;;;;4996422;28;20247;-85
2022/04/02 04:03:25;;;;;;;6.53;3.73;;;;;;;;;;4995530;28;20219;-85
2022/04/02 04:05:53;;;;;;;4.80;3.80;;;;;;;;;;4994438;28;20250;-85
2022/04/02 04:08:20;;;;;;;3.70;3.40;;;;;;;;;;4994411;28;20305;-84
2022/04/02 04:10:48;;;;;;;4.17;3.73;;;;;;;;;;4993545;28;20299;-84
2022/04/02 04:13:17;;;;;;;3.80;3.50;;;;;;;;;;4993871;28;20307;-85
2022/04/02 04:15:44;;;;;;;5.87;3.67;;;;;;;;;;4993345;28;20240;-85
2022/04/02 04:18:11;;;;;;;4.47;3.57;;;;;;;;;;4993622;28;20225;-85
2022/04/02 04:20:38;;;;;;;3.90;3.60;;;;;;;;;;5005048;28;20699;-84
2022/04/02 04:23:12;;;;;;;6.13;3.63;;;;;;;;;;4993519;28;20214;-84
2022/04/02 04:25:39;;;;;;;6.00;4.00;;;;;;;;;;4993392;28;20242;-85
2022/04/02 04:28:06;;;;;;;4.70;3.87;;;;;;;;;;4994388;28;20212;-86
2022/04/02 04:30:35;;;;;;;3.97;3.40;;;;;;;;;;4992773;28;20691;-84
2022/04/02 04:33:02;;;;;;;4.57;4.17;;;;;;;;;;4993678;28;20210;-84
2022/04/02 04:35:29;;;;;;;4.90;4.50;;;;;;;;;;4993440;28;20238;-85
2022/04/02 04:37:56;;;;;;;4.17;3.80;;;;;;;;;;4993742;28;20207;-84
2022/04/02 04:40:23;;;;;;;4.93;3.90;;;;;;;;;;4992837;28;20243;-84
2022/04/02 04:42:50;;;;;;;4.60;4.20;;;;;;;;;;4993203;28;20210;-84
2022/04/02 04:45:18;;;;;;;4.30;3.90;;;;;;;;;;4993191;28;20215;-84
2022/04/02 04:47:47;;;;;;;4.10;3.70;;;;;;;;;;4993903;28;20667;-84
2022/04/02 04:50:14;;;;;;;7.53;4.07;;;;;;;;;;4992836;28;20318;-84
2022/04/02 04:52:42;;;;;;;3.87;3.53;;;;;;;;;;4993684;28;20269;-84
2022/04/02 04:55:09;;;;;;;5.70;4.00;;;;;;;;;;4992692;28;20214;-84
2022/04/02 04:57:36;;;;;;;3.97;3.57;;;;;;;;;;4993239;28;20208;-83
2022/04/02 05:00:05;;;;;;;3.83;3.57;;;;;;;;;;4992597;28;20224;-84
2022/04/02 05:02:32;;;;;;;4.20;3.90;;;;;;;;;;4993441;28;20646;-84
2022/04/02 05:05:01;;;;;;;4.57;3.97;;;;;;;;;;4993740;28;20241;-83
2022/04/02 05:07:28;;;;;;;4.97;3.57;;;;;;;;;;4997654;28;20242;-83
2022/04/02 05:09:55;;;;;;;4.30;4.00;;;;;;;;;;4995823;28;20228;-83
2022/04/02 05:12:23;;;;;;;4.13;3.83;;;;;;;;;;4994120;28;20243;-83
2022/04/02 05:14:50;;;;;;;5.63;3.80;;;;;;;;;;4993710;28;20211;-83
2022/04/02 05:17:17;;;;;;;4.03;3.60;;;;;;;;;;4993323;28;20288;-83
2022/04/02 05:19:44;;;;;;;4.73;4.00;;;;;;;;;;4994052;28;20258;-83
2022/04/02 05:22:13;;;;;;;4.23;3.90;;;;;;;;;;4994327;28;20242;-82
2022/04/02 05:24:40;;;;;;;4.87;4.00;;;;;;;;;;4995539;28;20204;-82
2022/04/02 05:27:09;;;;;;;4.40;3.90;;;;;;;;;;4995481;28;20237;-83
2022/04/02 05:29:36;;;;;;;4.30;3.80;;;;;;;;;;4999484;28;20235;-83
2022/04/02 05:32:03;;;;;;;4.33;3.73;;;;;;;;;;4999469;28;20246;-83
2022/04/02 05:34:31;;;;;;;6.70;3.93;;;;;;;;;;5000834;28;20260;-83
2022/04/02 05:36:58;;;;;;;4.33;3.93;;;;;;;;;;5014733;28;20576;-83
2022/04/02 05:39:26;;;;;;;4.50;3.93;;;;;;;;;;5012000;28;20231;-82
2022/04/02 05:41:53;;;;;;;4.30;4.00;;;;;;;;;;5000915;28;20588;-84
2022/04/02 05:44:20;;;;;;;4.47;4.07;;;;;;;;;;5001585;28;20216;-82
2022/04/02 05:46:48;;;;;;;4.60;4.00;;;;;;;;;;4999893;28;20230;-82
2022/04/02 05:49:16;;;;;;;4.43;4.03;;;;;;;;;;5001530;28;20242;-82
2022/04/02 05:51:45;;;;;;;4.80;4.40;;;;;;;;;;4999884;28;20735;-83
2022/04/02 05:54:12;;;;;;;4.93;4.10;;;;;;;;;;5000586;28;20204;-83
2022/04/02 05:56:41;;;;;;;6.33;4.20;;;;;;;;;;5001032;28;20598;-82
2022/04/02 05:59:09;;;;;;;6.27;4.30;;;;;;;;;;5001850;28;20254;-83
2022/04/02 06:01:36;;;;;;;5.60;4.03;;;;;;;;;;5001128;28;20238;-82
2022/04/02 06:04:04;;;;;;;6.87;4.03;;;;;;;;;;5000239;28;20215;-82
2022/04/02 06:06:31;;;;;;;3.97;3.67;;;;;;;;;;5002303;28;20262;-83
2022/04/02 06:08:58;;;;;;;4.20;3.90;;;;;;;;;;4997726;28;20222;-84
2022/04/02 06:11:25;;;;;;;6.27;3.87;;;;;;;;;;4996011;28;20242;-84
2022/04/02 06:13:54;;;;;;;5.13;3.97;;;;;;;;;;4997076;28;20215;-84
2022/04/02 06:16:21;;;;;;;5.60;3.97;;;;;;;;;;4999356;28;20243;-84
2022/04/02 06:18:50;;;;;;;4.07;3.77;;;;;;;;;;5000249;28;20572;-84
2022/04/02 06:21:18;;;;;;;6.87;3.80;;;;;;;;;;5000515;28;20617;-84
2022/04/02 06:23:45;;;;;;;3.83;3.53;;;;;;;;;;5007804;28;20222;-84
2022/04/02 06:26:12;;;;;;;6.67;3.77;;;;;;;;;;4998819;28;20728;-86
2022/04/02 06:28:40;;;;;;;4.03;3.73;;;;;;;;;;5011830;28;20207;-85
2022/04/02 06:31:09;;;;;;;6.77;4.40;;;;;;;;;;4999765;28;20253;-85
2022/04/02 06:33:36;;;;;;;4.43;3.87;;;;;;;;;;5000379;28;20228;-85
2022/04/02 06:36:03;;;;;;;4.33;4.03;;;;;;;;;;4998923;28;20236;-85
2022/04/02 06:38:30;;;;;;;4.20;3.83;;;;;;;;;;4995354;28;20809;-84
2022/04/02 06:40:57;;;;;;;4.30;3.63;;;;;;;;;;4994257;28;20263;-87
2022/04/02 06:43:24;;;;;;;5.80;3.90;;;;;;;;;;4996177;28;20210;-86
2022/04/02 06:45:51;;;;;;;8.40;6.57;;;;;;;;;;4985337;28;20656;-88
2022/04/02 06:48:20;;;;;;;4.63;4.20;;;;;;;;;;4997199;28;20258;-88
2022/04/02 06:50:47;;;;;;;7.53;3.67;;;;;;;;;;4995705;28;20250;-87
2022/04/02 06:53:32;;;;;;;5.43;4.90;;;;;;;;;;4976992;28;20209;-86
2022/04/02 06:56:04;;;;;;;4.07;3.67;;;;;;;;;;4976786;28;20251;-85
2022/04/02 06:58:33;;;;;;;4.37;3.97;;;;;;;;;;4978843;28;20204;-87
2022/04/02 07:01:00;;;;;;;4.70;3.90;;;;;;;;;;4995270;28;20696;-87
2022/04/02 07:03:35;;;;;;;6.07;3.80;;;;;;;;;;4998357;28;20218;-86
2022/04/02 07:06:02;;;;;;;4.40;3.90;;;;;;;;;;5022790;28;20218;-87
2022/04/02 07:08:29;;;;;;;4.50;3.90;;;;;;;;;;5019320;28;20203;-86
2022/04/02 07:10:56;;;;;;;4.13;3.80;;;;;;;;;;5005981;28;20247;-84
2022/04/02 07:13:24;;;;;;;4.27;3.87;;;;;;;;;;4996362;28;20699;-85
2022/04/02 07:15:51;;;;;;;3.87;3.57;;;;;;;;;;4996504;28;20236;-85
2022/04/02 07:18:19;;;;;;;4.53;4.13;;;;;;;;;;4996918;28;20199;-85
2022/04/02 07:20:50;;;;;;;3.67;3.40;;;;;;;;;;4997550;28;20240;-85
2022/04/02 07:23:17;;;;;;;4.87;4.17;;;;;;;;;;4997927;28;20598;-88
2022/04/02 07:25:44;;;;;;;4.63;4.13;;;;;;;;;;4997461;28;20238;-86
2022/04/02 07:28:12;;;;;;;4.80;3.60;;;;;;;;;;5002189;28;20207;-86
2022/04/02 07:30:40;;;;;;;4.80;4.27;;;;;;;;;;5017846;28;20220;-85
2022/04/02 07:33:07;;;;;;;4.30;3.90;;;;;;;;;;5017221;28;20207;-86
2022/04/02 07:35:35;;;;;;;6.37;3.67;;;;;;;;;;5004399;28;20247;-87
2022/04/02 07:38:05;;;;;;;5.13;4.33;;;;;;;;;;4996786;28;20204;-86
2022/04/02 07:40:38;;;;;;;4.73;4.13;;;;;;;;;;4995710;28;20266;-86
2022/04/02 07:43:08;;;;;;;7.60;4.30;;;;;;;;;;4993518;28;20223;-87
2022/04/02 07:45:37;;;;;;;4.00;3.70;;;;;;;;;;4993238;28;20235;-84
2022/04/02 07:48:07;;;;;;;4.83;4.30;;;;;;;;;;4993629;28;20723;-83
2022/04/02 07:50:35;;;;;;;6.20;4.00;;;;;;;;;;4992950;28;20273;-84
2022/04/02 07:53:06;;;;;;;4.73;3.93;;;;;;;;;;4993742;28;20687;-85
2022/04/02 07:55:35;;;;;;;4.60;4.17;;;;;;;;;;4993476;28;20246;-84
2022/04/02 07:58:03;;;;;;;7.53;3.93;;;;;;;;;;4993940;28;20649;-87
2022/04/02 08:00:32;;;;;;;6.33;3.87;;;;;;;;;;4993000;28;20247;-86
2022/04/02 08:03:02;;;;;;;5.83;3.90;;;;;;;;;;4976223;28;20564;-85
2022/04/02 08:05:40;;;;;;;7.33;4.73;;;;;;;;;;4987559;28;20601;-87
2022/04/02 08:08:08;;;;;;;4.23;3.83;;;;;;;;;;4974509;28;20212;-87
2022/04/02 08:10:37;;;;;;;5.77;3.60;;;;;;;;;;4987313;28;20240;-87
2022/04/02 08:13:06;;;;;;;4.40;4.00;;;;;;;;;;4992962;28;20692;-86
2022/04/02 08:15:33;;;;;;;5.07;4.13;;;;;;;;;;4992620;28;20243;-86
2022/04/02 08:18:02;;;;;;;5.37;3.60;;;;;;;;;;4993011;28;20204;-86
2022/04/02 08:20:30;;;;;;;4.20;3.80;;;;;;;;;;4992948;28;20240;-87
2022/04/02 08:22:57;;;;;;;9.23;3.90;;;;;;;;;;4993031;28;20671;-87
2022/04/02 08:25:24;;;;;;;5.50;3.67;;;;;;;;;;4992851;28;20231;-88
2022/04/02 08:28:16;;;;;;;5.50;3.93;;;;;;;;;;4993824;28;20228;-88
2022/04/02 08:30:56;;;;;;;4.47;3.87;;;;;;;;;;4992708;28;20236;-88
2022/04/02 08:33:36;;;;;;;7.83;3.70;;;;;;;;;;4981090;28;20682;-85
2022/04/02 08:36:08;;;;;;;4.27;3.87;;;;;;;;;;4992812;28;20243;-86
2022/04/02 08:38:40;;;;;;;4.13;3.73;;;;;;;;;;4992903;28;20668;-86
2022/04/02 08:41:34;;;;;;;4.53;4.00;;;;;;;;;;4991984;28;20317;-88
2022/04/02 08:44:32;;;;;;;4.23;3.90;;;;;;;;;;4983713;28;20704;-89
2022/04/02 08:47:11;;;;;;;6.77;4.10;;;;;;;;;;4993014;28;20626;-88
2022/04/02 08:49:55;;;;;;;4.87;3.50;;;;;;;;;;4993223;28;20875;-87
2022/04/02 08:52:30;;;;;;;4.40;4.00;;;;;;;;;;4992749;28;20246;-87
2022/04/02 08:55:09;;;;;;;4.27;3.87;;;;;;;;;;4992641;28;20200;-88
2022/04/02 08:57:47;;;;;;;4.23;3.80;;;;;;;;;;4993100;28;20234;-87
2022/04/02 09:00:16;;;;;;;4.90;3.70;;;;;;;;;;4992769;28;20239;-88
2022/04/02 09:02:50;;;;;;;6.67;4.03;;;;;;;;;;4994661;28;20209;-88
2022/04/02 09:05:23;;;;;;;4.73;3.37;;;;;;;;;;4996584;28;20679;-86
2022/04/02 09:08:11;;;;;;;4.20;3.30;;;;;;;;;;4997088;28;20267;-85
2022/04/02 09:10:53;;;;;;;4.37;3.60;;;;;;;;;;4996573;28;20323;-86
2022/04/02 09:13:40;;;;;;;5.27;3.63;;;;;;;;;;4997576;28;20200;-85
2022/04/02 09:16:10;;;;;;;5.93;3.50;;;;;;;;;;4968820;28;20233;-85
2022/04/02 09:18:39;;;;;;;4.53;3.63;;;;;;;;;;4996257;28;20200;-85
2022/04/02 09:21:25;;;;;;;5.63;3.43;;;;;;;;;;4996364;28;20697;-86
2022/04/02 09:24:01;;;;;;;5.60;3.63;;;;;;;;;;4996502;28;20208;-88
2022/04/02 09:26:40;;;;;;;5.27;4.17;;;;;;;;;;4996107;28;20612;-85
2022/04/02 09:29:13;;;;;;;4.83;3.80;;;;;;;;;;4996527;28;20227;-83
2022/04/02 09:32:07;;;;;;;4.20;3.70;;;;;;;;;;4996242;28;20227;-85
2022/04/02 09:34:51;;;;;;;4.63;4.20;;;;;;;;;;4955801;28;20222;-85
2022/04/02 09:37:30;;;;;;;4.00;3.37;;;;;;;;;;4985664;28;20231;-84
2022/04/02 09:40:03;;;;;;;9.53;4.10;;;;;;;;;;4996040;28;20219;-84
2022/04/02 09:42:37;;;;;;;5.00;4.60;;;;;;;;;;4995986;28;20686;-84
2022/04/02 09:45:06;;;;;;;5.53;3.97;;;;;;;;;;5000083;28;20235;-84
2022/04/02 09:48:07;;;;;;;6.20;3.23;;;;;;;;;;5005376;28;20705;-84
2022/04/02 09:50:34;;;;;;;3.37;3.07;;;;;;;;;;5015398;28;20698;-84
2022/04/02 09:53:12;;;;;;;10.83;3.57;;;;;;;;;;5018636;28;20694;-83
2022/04/02 09:55:44;;;;;;;5.57;4.30;;;;;;;;;;5020640;28;20249;-83
2022/04/02 09:58:19;;;;;;;3.77;3.47;;;;;;;;;;5014002;28;20580;-83
2022/04/02 10:00:52;;;;;;;4.77;3.30;;;;;;;;;;5002314;28;20610;-82
2022/04/02 10:03:28;;;;;;;5.17;4.23;;;;;;;;;;5005962;28;20215;-82
2022/04/02 10:06:05;;;;;;;4.30;3.90;;;;;;;;;;5006341;28;20240;-82
2022/04/02 10:08:38;;;;;;;4.23;2.70;;;;;;;;;;5005127;28;20297;-83
2022/04/02 10:11:07;;;;;;;4.93;4.27;;;;;;;;;;5003226;28;20248;-82
2022/04/02 10:13:35;;;;;;;5.13;3.87;;;;;;;;;;5005663;28;20303;-83
2022/04/02 10:16:05;;;;;;;4.47;3.60;;;;;;;;;;5005119;28;20235;-82
2022/04/02 10:18:35;;;;;;;4.13;3.73;;;;;;;;;;5009021;28;20192;-82
2022/04/02 10:21:05;;;;;;;3.83;3.50;;;;;;;;;;5005859;28;20624;-82
2022/04/02 10:23:35;;;;;;;4.57;4.10;;;;;;;;;;5010133;28;20569;-80
2022/04/02 10:26:15;;;;;;;6.53;3.67;;;;;;;;;;5008726;28;20236;-81
2022/04/02 10:28:48;;;;;;;4.37;3.93;;;;;;;;;;5008308;28;20204;-81
2022/04/02 10:31:20;;;;;;;5.93;4.23;;;;;;;;;;5004945;28;20236;-80
2022/04/02 10:33:50;;;;;;;8.83;3.83;;;;;;;;;;5003768;28;20593;-81
2022/04/02 10:36:17;;;;;;;6.17;3.67;;;;;;;;;;5002053;28;20238;-83
2022/04/02 10:38:48;;;;;;;4.67;3.27;;;;;;;;;;5002276;28;20236;-83
2022/04/02 10:41:17;;;;;;;3.50;3.20;;;;;;;;;;5033037;23;20290;-79
2022/04/02 10:43:47;;;;;;;4.87;3.70;;;;;;;;;;5011098;28;20212;-79
2022/04/02 10:46:19;;;;;;;11.77;3.07;;;;;;;;;;5010548;28;20235;-80
2022/04/02 10:48:55;;;;;;;3.50;3.23;;;;;;;;;;5021838;28;20232;-80
2022/04/02 10:51:23;;;;;;;4.97;4.20;;;;;;;;;;4989458;28;20232;-80
2022/04/02 10:53:55;;;;;;;6.37;4.30;;;;;;;;;;4981552;28;20216;-79
2022/04/02 10:56:29;;;;;;;4.40;4.00;;;;;;;;;;5000661;28;20235;-80
2022/04/02 10:58:56;;;;;;;6.93;4.57;;;;;;;;;;5001440;28;20271;-80
2022/04/02 11:01:24;;;;;;;4.20;3.80;;;;;;;;;;5008935;28;20243;-80
2022/04/02 11:03:55;;;;;;;3.90;3.40;;;;;;;;;;5003265;28;20210;-80
2022/04/02 11:06:37;;;;;;;4.17;3.77;;;;;;;;;;5001900;28;20770;-81
2022/04/02 11:09:19;;;;;;;5.80;2.73;;;;;;;;;;4986514;28;20244;-79
2022/04/02 11:11:49;;;;;;;4.40;3.93;;;;;;;;;;5003113;28;20243;-80
2022/04/02 11:14:21;;;;;;;5.40;4.30;;;;;;;;;;5002246;28;20642;-80
2022/04/02 11:16:48;;;;;;;4.30;3.90;;;;;;;;;;5002885;28;20288;-80
2022/04/02 11:22:03;;;;;;;4.47;4.03;;;;;;;;;;5001803;28;20263;-79
2022/04/02 11:24:32;;;;;;;11.67;3.83;;;;;;;;;;4998536;28;20206;-80
2022/04/02 11:27:02;;;;;;;4.87;3.63;;;;;;;;;;4987154;28;20295;-80
2022/04/02 11:29:31;;;;;;;3.90;3.47;;;;;;;;;;4997282;28;20713;-81
2022/04/02 11:32:01;;;;;;;4.83;4.17;;;;;;;;;;5002121;28;20244;-81
2022/04/02 11:34:30;;;;;;;5.30;4.00;;;;;;;;;;5001081;28;20573;-81
2022/04/02 11:37:01;;;;;;;4.17;3.70;;;;;;;;;;4995698;28;20235;-79
2022/04/02 11:39:34;;;;;;;4.70;3.90;;;;;;;;;;5000252;28;20286;-80
2022/04/02 11:42:04;;;;;;;4.30;3.90;;;;;;;;;;4992685;28;20325;-80
2022/04/02 11:44:38;;;;;;;4.30;3.90;;;;;;;;;;5012545;28;20315;-80
2022/04/02 11:47:06;;;;;;;7.40;4.27;;;;;;;;;;5009566;28;20235;-80
2022/04/02 11:49:36;;;;;;;4.33;3.67;;;;;;;;;;4997580;28;20256;-80
2022/04/02 11:52:04;;;;;;;3.83;3.53;;;;;;;;;;4984357;28;20240;-81
2022/04/02 11:54:31;;;;;;;4.50;4.10;;;;;;;;;;4992595;28;20696;-81
2022/04/02 11:57:16;;;;;;;4.17;3.87;;;;;;;;;;4998997;28;20240;-80
2022/04/02 11:59:52;;;;;;;3.40;3.10;;;;;;;;;;4981268;28;20268;-82
2022/04/02 12:02:35;;;;;;;5.50;3.70;;;;;;;;;;4980531;28;20228;-81
2022/04/02 12:05:02;;;;;;;6.00;4.07;;;;;;;;;;4979038;28;20209;-81
2022/04/02 12:07:39;;;;;;;7.13;3.90;;;;;;;;;;4985398;28;20207;-79
2022/04/02 12:10:06;;;;;;;3.93;3.63;;;;;;;;;;4976889;28;20231;-81
2022/04/02 12:12:33;;;;;;;5.80;3.93;;;;;;;;;;4987853;28;20216;-80
2022/04/02 12:15:09;;;;;;;5.10;4.50;;;;;;;;;;4997757;28;20208;-80
2022/04/02 12:17:38;;;;;;;4.57;4.17;;;;;;;;;;4996155;28;20199;-81
2022/04/02 12:20:07;;;;;;;5.70;4.20;;;;;;;;;;5004303;28;20287;-81
2022/04/02 12:22:36;;;;;;;3.97;3.57;;;;;;;;;;5023552;28;20299;-80
2022/04/02 12:25:04;;;;;;;4.10;3.70;;;;;;;;;;5015877;28;20276;-79
2022/04/02 12:27:32;;;;;;;3.50;3.27;;;;;;;;;;5002814;28;20668;-79
2022/04/02 12:30:00;;;;;;;6.43;3.93;;;;;;;;;;5003929;28;20204;-79
2022/04/02 12:32:30;;;;;;;5.60;3.47;;;;;;;;;;4988324;28;20239;-80
2022/04/02 12:34:58;;;;;;;5.87;3.20;;;;;;;;;;5000765;28;20283;-82
2022/04/02 12:37:28;;;;;;;2.93;2.73;;;;;;;;;;4989575;28;20644;-81
2022/04/02 12:39:56;;;;;;;3.07;2.80;;;;;;;;;;5002782;28;20211;-81
2022/04/02 12:42:36;;;;;;;3.23;2.97;;;;;;;;;;5001746;28;20234;-81
2022/04/02 12:45:08;;;;;;;2.70;2.50;;;;;;;;;;4998893;28;20204;-81
2022/04/02 12:47:37;;;;;;;2.83;2.63;;;;;;;;;;4993624;28;20318;-81
2022/04/02 12:50:17;;;;;;;4.13;2.70;;;;;;;;;;4996590;28;20228;-82
2022/04/02 12:52:47;;;;;;;4.47;3.47;;;;;;;;;;5000028;28;20207;-81
2022/04/02 12:55:19;;;;;;;5.47;3.27;;;;;;;;;;4998373;28;20879;-82
2022/04/02 12:57:56;;;;;;;3.30;3.00;;;;;;;;;;5001549;28;20239;-81
2022/04/02 13:00:26;;;;;;;3.17;2.87;;;;;;;;;;5005484;28;20742;-80
2022/04/02 13:02:56;;;;;;;2.83;2.63;;;;;;;;;;5000716;28;20500;-80
2022/04/02 13:05:25;;;;;;;5.90;3.00;;;;;;;;;;5007294;28;20259;-79
2022/04/02 13:08:00;;;;;;;3.57;2.90;;;;;;;;;;4999811;28;20200;-79
2022/04/02 13:10:29;;;;;;;3.80;3.43;;;;;;;;;;4990554;28;20606;-80
2022/04/02 13:13:00;;;;;;;4.20;3.50;;;;;;;;;;4988054;28;20197;-80
2022/04/02 13:15:29;;;;;;;4.73;3.40;;;;;;;;;;4986805;28;20236;-82
2022/04/02 13:20:45;;;;;;;2.93;2.73;;;;;;;;;;4955545;28;20264;-81
2022/04/02 13:23:28;;;;;;;3.23;3.03;;;;;;;;;;4986336;28;20208;-81
2022/04/02 13:26:01;;;;;;;3.57;3.23;;;;;;;;;;4988678;28;20240;-81
2022/04/02 13:28:36;;;;;;;4.10;3.43;;;;;;;;;;5008307;28;20246;-81
2022/04/02 13:31:03;;;;;;;4.07;3.20;;;;;;;;;;5006541;28;20235;-80
2022/04/02 13:33:59;;;;;;;5.23;3.60;;;;;;;;;;5007389;28;20200;-81
2022/04/02 13:36:36;;;;;;;6.27;3.40;;;;;;;;;;5000682;28;20235;-82
2022/04/02 13:39:08;;;;;;;3.80;3.40;;;;;;;;;;4994754;28;20196;-81
2022/04/02 13:41:36;;;;;;;4.90;3.43;;;;;;;;;;4992433;28;20743;-78
2022/04/02 13:44:04;;;;;;;6.57;3.40;;;;;;;;;;5006092;28;20283;-81
2022/04/02 13:46:37;;;;;;;6.07;3.57;;;;;;;;;;5008082;28;20235;-81
2022/04/02 13:49:06;;;;;;;4.73;3.50;;;;;;;;;;5010391;28;20224;-80
2022/04/02 13:51:44;;;;;;;4.60;3.70;;;;;;;;;;5008859;28;20246;-80
2022/04/02 13:54:12;;;;;;;3.80;3.50;;;;;;;;;;5008439;28;20200;-80
2022/04/02 13:56:40;;;;;;;3.20;3.00;;;;;;;;;;5002136;28;20242;-80
2022/04/02 13:59:08;;;;;;;4.93;2.83;;;;;;;;;;5008144;28;20200;-79
2022/04/02 14:01:40;;;;;;;5.63;3.50;;;;;;;;;;5006343;28;20240;-79
2022/04/02 14:04:12;;;;;;;4.10;3.57;;;;;;;;;;5000042;28;20204;-81
2022/04/02 14:06:43;;;;;;;4.27;3.50;;;;;;;;;;5010480;28;20246;-80
2022/04/02 14:09:11;;;;;;;3.57;3.27;;;;;;;;;;5001026;28;20224;-80
2022/04/02 14:11:39;;;;;;;3.73;3.43;;;;;;;;;;5002740;28;20242;-80
2022/04/02 14:14:26;;;;;;;3.73;3.43;;;;;;;;;;5004664;28;20268;-80
2022/04/02 14:17:14;;;;;;;6.00;4.20;;;;;;;;;;5008981;28;20215;-80
2022/04/02 14:19:47;;;;;;;4.80;4.30;;;;;;;;;;4998342;28;20203;-81
2022/04/02 14:22:18;;;;;;;4.80;4.10;;;;;;;;;;4992198;28;20296;-80
2022/04/02 14:24:50;;;;;;;5.90;4.63;;;;;;;;;;5010727;28;20215;-81
2022/04/02 14:27:25;;;;;;;8.13;3.77;;;;;;;;;;5010089;28;20263;-81
2022/04/02 14:30:01;;;;;;;5.20;4.27;;;;;;;;;;5009564;28;20227;-81
2022/04/02 14:32:47;;;;;;;6.30;4.83;;;;;;;;;;5010350;28;20744;-81
2022/04/02 14:35:38;;;;;;;4.03;3.63;;;;;;;;;;5004666;28;20208;-81
2022/04/02 14:38:33;;;;;;;3.87;3.57;;;;;;;;;;5000650;28;20231;-80
2022/04/02 14:41:08;;;;;;;5.40;3.70;;;;;;;;;;5016219;28;20280;-80
2022/04/02 14:43:51;;;;;;;4.37;3.20;;;;;;;;;;5016775;28;20195;-80
2022/04/02 14:46:41;;;;;;;5.50;3.60;;;;;;;;;;5015860;28;20239;-80
2022/04/02 14:49:38;;;;;;;4.20;3.63;;;;;;;;;;5012706;28;20232;-80
2022/04/02 14:52:20;;;;;;;3.73;3.13;;;;;;;;;;5009958;28;20253;-80
2022/04/02 14:55:01;;;;;;;6.20;3.20;;;;;;;;;;5010146;28;20200;-80
2022/04/02 14:57:56;;;;;;;3.47;3.17;;;;;;;;;;5008874;28;20230;-80
2022/04/02 15:00:35;;;;;;;4.70;3.50;;;;;;;;;;5006074;28;20236;-80
2022/04/02 15:03:29;;;;;;;4.67;3.40;;;;;;;;;;5006797;28;20218;-81
2022/04/02 15:06:20;;;;;;;3.77;3.47;;;;;;;;;;4992600;28;20239;-81
2022/04/02 15:09:00;;;;;;;4.10;3.70;;;;;;;;;;4993041;28;20220;-81
2022/04/02 15:11:31;;;;;;;3.13;2.90;;;;;;;;;;4983764;28;20223;-81
2022/04/02 15:14:05;;;;;;;3.60;3.30;;;;;;;;;;4996312;28;20298;-81
2022/04/02 15:16:33;;;;;;;3.40;3.10;;;;;;;;;;4994728;28;20231;-81